Time;durP1;ratioP1;P1;durP2;ratioP2;P2;SDS_P1;SDS_P2;PMS_P1;PMS_P2;Temp;Humidity;BMP_temperature;BMP_pressure;BME280_temperature;BME280_humidity;BME280_pressure;Samples;Min_cycle;Max_cycle;Signal;HPM_P1;HPM_P2
2022/08/23 00:02:27;;;;;;;;;;;;;;;17.08;62.52;98007.34;5066256;28;19924;-60
2022/08/23 00:04:54;;;;;;;;;;;;;;;17.09;62.60;97994.44;5065783;28;19958;-61
2022/08/23 00:07:35;;;;;;;;;;;;;;;17.12;62.52;98000.03;5064400;28;19928;-60
2022/08/23 00:10:07;;;;;;;;;;;;;;;16.97;63.18;97995.31;5067356;28;19926;-60
2022/08/23 00:12:35;;;;;;;;;;;;;;;16.75;64.17;97991.97;5065180;28;19931;-61
2022/08/23 00:15:04;;;;;;;;;;;;;;;16.56;65.08;97994.53;5050460;28;20093;-60
2022/08/23 00:17:32;;;;;;;;;;;;;;;16.58;64.99;97986.75;5067339;28;19954;-60
2022/08/23 00:20:01;;;;;;;;;;;;;;;16.68;64.57;97982.72;5070175;28;19920;-60
2022/08/23 00:22:29;;;;;;;;;;;;;;;16.68;64.49;97986.28;5068045;28;19959;-61
2022/08/23 00:27:50;;;;;;;;;;;;;;;16.43;65.14;97982.81;5061067;28;19920;-60
2022/08/23 00:30:43;;;;;;;;;;;;;;;16.50;64.90;97982.22;5051159;28;19970;-61
2022/08/23 00:33:12;;;;;;;;;;;;;;;16.65;64.29;97989.69;5067445;28;19974;-60
2022/08/23 00:35:40;;;;;;;;;;;;;;;16.41;65.22;97984.31;5065373;28;19929;-61
2022/08/23 00:38:09;;;;;;;;;;;;;;;16.57;64.46;97987.91;5065953;28;19927;-61
2022/08/23 00:40:57;;;;;;;;;;;;;;;16.29;65.70;97989.81;5049815;28;19920;-60
2022/08/23 00:49:03;;;;;;;;;;;;;;;16.50;64.77;97984.94;5059298;28;19928;-60
2022/08/23 00:51:34;;;;;;;;;;;;;;;16.43;65.01;97985.56;5065023;28;19932;-60
2022/08/23 00:54:18;;;;;;;;;;;;;;;16.49;64.79;97991.59;5064673;28;20344;-60
2022/08/23 00:56:49;;;;;;;;;;;;;;;16.57;63.97;97987.91;5065628;28;19925;-60
2022/08/23 00:59:18;;;;;;;;;;;;;;;16.57;64.27;97985.19;5067954;28;19931;-60
2022/08/23 01:01:46;;;;;;;;;;;;;;;16.47;64.42;97991.94;5050473;28;19931;-61
2022/08/23 01:04:16;;;;;;;;;;;;;;;16.44;64.52;97986.34;5049244;28;20380;-61
2022/08/23 01:06:45;;;;;;;;;;;;;;;16.36;64.76;97992.78;5049603;28;19974;-61
2022/08/23 01:09:37;;;;;;;;;;;;;;;16.36;64.49;97987.31;5049167;28;20396;-61
2022/08/23 01:12:06;;;;;;;;;;;;;;;16.35;64.91;97996.66;5050642;28;19931;-61
2022/08/23 01:14:36;;;;;;;;;;;;;;;16.30;64.94;97994.97;5047708;28;20389;-60
2022/08/23 01:17:05;;;;;;;;;;;;;;;16.39;64.48;97990.13;5067602;28;19932;-62
2022/08/23 01:19:36;;;;;;;;;;;;;;;15.92;65.99;98003.56;5051658;28;20274;-61
2022/08/23 01:22:13;;;;;;;;;;;;;;;15.73;67.05;97995.16;5051158;28;19928;-62
2022/08/23 01:27:40;;;;;;;;;;;;;;;15.91;66.41;98005.53;5045801;28;20020;-60
2022/08/23 01:30:13;;;;;;;;;;;;;;;15.66;67.77;98010.22;5064863;28;19924;-62
2022/08/23 01:32:45;;;;;;;;;;;;;;;15.61;67.66;98015.91;5046251;28;20381;-61
2022/08/23 01:35:17;;;;;;;;;;;;;;;15.74;67.17;98007.72;5047234;28;19929;-61
2022/08/23 01:37:45;;;;;;;;;;;;;;;15.38;68.72;98007.31;5063339;28;20600;-60
2022/08/23 01:40:14;;;;;;;;;;;;;;;15.27;69.40;98013.56;5049317;28;20039;-62
2022/08/23 01:42:43;;;;;;;;;;;;;;;15.08;69.82;98023.13;5065570;28;19956;-61
2022/08/23 01:45:13;;;;;;;;;;;;;;;15.42;68.60;98008.22;5045688;28;20035;-60
2022/08/23 01:47:41;;;;;;;;;;;;;;;15.13;69.41;98014.69;5047792;28;19956;-60
2022/08/23 01:50:10;;;;;;;;;;;;;;;15.18;69.49;98014.47;5048238;28;19931;-60
2022/08/23 01:52:39;;;;;;;;;;;;;;;15.14;69.57;98013.53;5067910;28;19928;-60
2022/08/23 01:55:18;;;;;;;;;;;;;;;14.99;70.09;98011.44;5049992;28;19975;-61
2022/08/23 01:57:47;;;;;;;;;;;;;;;14.88;70.67;98010.28;5065486;28;19974;-61
2022/08/23 02:00:18;;;;;;;;;;;;;;;14.91;70.56;98009.59;5071781;28;20432;-60
2022/08/23 02:02:48;;;;;;;;;;;;;;;15.13;69.62;98005.69;5053452;28;20027;-61
2022/08/23 02:05:19;;;;;;;;;;;;;;;15.22;69.50;98013.78;5066195;28;19933;-61
2022/08/23 02:11:01;;;;;;;;;;;;;;;15.49;68.03;98013.13;5053371;28;20377;-61
2022/08/23 02:13:29;;;;;;;;;;;;;;;15.54;68.08;98014.84;5053996;28;19932;-60
2022/08/23 02:15:58;;;;;;;;;;;;;;;15.57;67.75;98016.91;5063991;28;20137;-60
2022/08/23 02:18:29;;;;;;;;;;;;;;;15.62;67.65;98020.22;5053854;28;19986;-61
2022/08/23 02:21:08;;;;;;;;;;;;;;;15.50;68.12;98011.19;5071805;28;19928;-61
2022/08/23 02:23:36;;;;;;;;;;;;;;;15.55;67.71;98011.75;5064952;28;19931;-61
2022/08/23 02:29:04;;;;;;;;;;;;;;;15.55;67.41;98014.50;5052415;28;20318;-61
2022/08/23 02:31:33;;;;;;;;;;;;;;;15.32;68.44;98018.81;5065585;28;19933;-60
2022/08/23 02:34:01;;;;;;;;;;;;;;;15.01;69.38;98030.25;5064956;28;19956;-61
2022/08/23 02:36:32;;;;;;;;;;;;;;;14.62;70.97;98026.91;5069693;28;20007;-61
2022/08/23 02:38:59;;;;;;;;;;;;;;;15.02;69.39;98020.91;5070437;28;19928;-61
2022/08/23 02:41:31;;;;;;;;;;;;;;;15.06;69.17;98027.31;5066970;28;19925;-60
2022/08/23 02:43:59;;;;;;;;;;;;;;;15.09;69.25;98027.44;5052070;28;20420;-60
2022/08/23 02:46:28;;;;;;;;;;;;;;;15.13;69.09;98022.91;5051418;28;19963;-61
2022/08/23 02:48:56;;;;;;;;;;;;;;;15.09;69.15;98019.22;5050413;28;20322;-61
2022/08/23 02:51:26;;;;;;;;;;;;;;;14.72;70.55;98012.84;5052599;28;19932;-60
2022/08/23 02:53:56;;;;;;;;;;;;;;;14.94;69.79;98014.41;5057869;28;19925;-61
2022/08/23 02:56:24;;;;;;;;;;;;;;;15.13;69.02;98013.88;5059943;28;19925;-60
2022/08/23 02:58:56;;;;;;;;;;;;;;;15.18;68.77;97998.06;5066432;28;19929;-60
2022/08/23 03:01:28;;;;;;;39.50;35.28;;;;;;;15.36;68.17;97998.66;5066257;28;20415;-61
2022/08/23 03:04:09;;;;;;;496.40;196.75;;;;;;;15.36;67.95;98004.13;5064248;28;20487;-60
2022/08/23 03:06:38;;;;;;;464.98;182.48;;;;;;;15.18;68.88;98006.25;5047952;28;20800;-60
2022/08/23 03:09:34;;;;;;;42.58;38.38;;;;;;;15.20;68.73;98005.91;5045778;28;20408;-60
2022/08/23 03:12:04;;;;;;;6.15;3.70;;;;;;;15.07;69.19;98024.22;5061263;28;20411;-60
2022/08/23 03:14:37;;;;;;;107.20;79.57;;;;;;;14.92;69.87;98022.94;5050470;28;20461;-60
2022/08/23 03:17:07;;;;;;;122.90;85.30;;;;;;;15.10;68.84;98017.28;5050822;28;20831;-61
2022/08/23 03:19:37;;;;;;;147.15;93.78;;;;;;;15.04;68.94;98024.91;5050267;28;20835;-61
2022/08/23 03:22:08;;;;;;;239.37;121.47;;;;;;;14.61;70.60;98028.06;5048324;28;20433;-60
2022/08/23 03:25:02;;;;;;;317.63;140.48;;;;;;;14.60;70.44;98032.72;5053247;28;20407;-60
2022/08/23 03:27:41;;;;;;;;;;;;;;;14.13;72.00;98023.88;5053281;28;20892;-61
2022/08/23 03:30:14;;;;;;;;;;;;;;;14.43;70.96;98027.34;5066964;28;19936;-61
2022/08/23 03:33:12;;;;;;;;;;;;;;;14.67;69.88;98030.25;5063964;28;21663;-61
2022/08/23 03:35:41;;;;;;;;;;;;;;;14.29;71.66;98024.09;5045964;28;19920;-60
2022/08/23 03:38:11;;;;;;;;;;;;;;;14.65;70.14;98029.78;5024730;28;19964;-60
2022/08/23 03:40:43;;;;;;;;;;;;;;;14.73;69.60;98027.31;5032572;28;19928;-61
2022/08/23 03:43:13;;;;;;;;;;;;;;;14.43;70.66;98027.34;5024088;28;19929;-60
2022/08/23 03:45:43;;;;;;;;;;;;;;;13.83;73.12;98031.28;5026639;28;19928;-60
2022/08/23 03:48:13;;;;;;;;;;;;;;;14.10;72.26;98030.00;5025183;28;20008;-61
2022/08/23 03:50:43;;;;;;;;;;;;;;;14.20;71.68;98024.16;5026640;28;19964;-61
2022/08/23 03:53:11;;;;;;;;;;;;;;;14.15;72.22;98030.59;5026245;28;19968;-60
2022/08/23 03:56:06;;;;;;;;;;;;;;;14.44;70.96;98022.72;5028632;28;19975;-60
2022/08/23 03:58:34;;;;;;;;;;;;;;;14.52;70.25;98025.38;5026363;28;20373;-61
2022/08/23 04:01:04;;;;;;;;;;;;;;;14.23;71.05;98019.97;5025952;28;20017;-60
2022/08/23 04:03:33;;;;;;;;;;;;;;;14.23;71.31;98022.69;5028518;28;19936;-60
2022/08/23 04:06:04;;;;;;;;;;;;;;;13.93;72.49;98024.66;5040360;28;19932;-60
2022/08/23 04:08:33;;;;;;;;;;;;;;;13.88;72.56;98023.69;5036513;28;19931;-60
2022/08/23 04:11:03;;;;;;;;;;;;;;;13.67;73.42;98022.84;5036170;28;19925;-61
2022/08/23 04:13:39;;;;;;;;;;;;;;;13.98;72.13;98021.72;5026309;28;19924;-60
2022/08/23 04:16:08;;;;;;;;;;;;;;;14.23;71.21;98028.97;5029346;28;20457;-60
2022/08/23 04:18:37;;;;;;;;;;;;;;;13.94;72.14;98031.72;5030413;28;19921;-60
2022/08/23 04:21:08;;;;;;;;;;;;;;;13.84;72.65;98033.69;5028416;28;19921;-60
2022/08/23 04:23:37;;;;;;;;;;;;;;;14.09;71.52;98029.19;5023734;28;20366;-61
2022/08/23 04:26:08;;;;;;;;;;;;;;;13.84;72.31;98030.94;5028683;28;20007;-60
2022/08/23 04:28:36;;;;;;;;;;;;;;;13.97;71.82;98031.06;5027750;28;20015;-60
2022/08/23 04:31:05;;;;;;;;;;;;;;;14.06;71.86;98032.63;5044337;28;20086;-60
2022/08/23 04:33:35;;;;;;;;;;;;;;;14.06;71.78;98037.25;5027790;28;19925;-61
2022/08/23 04:36:08;;;;;;;;;;;;;;;14.33;70.50;98033.25;5027681;28;19928;-60
2022/08/23 04:38:37;;;;;;;;;;;;;;;14.25;70.35;98043.09;5026223;28;19979;-61
2022/08/23 04:43:56;;;;;;;;;;;;;;;14.26;70.30;98061.06;4998620;28;20332;-61
2022/08/23 04:46:25;;;;;;;;;;;;;;;14.36;70.04;98062.63;5027996;28;19928;-60
2022/08/23 04:48:59;;;;;;;;;;;;;;;14.48;69.40;98064.66;5010543;28;19955;-61
2022/08/23 04:51:28;;;;;;;;;;;;;;;14.40;69.54;98066.28;5038704;28;19920;-60
2022/08/23 04:53:57;;;;;;;;;;;;;;;13.92;71.20;98073.00;5027939;28;19921;-61
2022/08/23 04:56:45;;;;;;;;;;;;;;;13.88;71.69;98067.41;5008720;28;19929;-61
2022/08/23 04:59:18;;;;;;;;;;;;;;;14.04;71.37;98078.56;5041194;28;20373;-60
2022/08/23 05:01:46;;;;;;;;;;;;;;;14.28;70.07;98080.69;5026095;28;19928;-64
2022/08/23 05:04:15;;;;;;;;;;;;;;;14.00;70.84;98083.06;5029645;28;19929;-61
2022/08/23 05:06:44;;;;;;;;;;;;;;;13.49;72.88;98084.91;5042259;28;19921;-61
2022/08/23 05:09:37;;;;;;;;;;;;;;;13.63;72.18;98080.06;5026285;28;20011;-61
2022/08/23 05:12:31;;;;;;;;;;;;;;;13.45;72.95;98089.41;5025374;28;19952;-60
2022/08/23 05:14:59;;;;;;;;;;;;;;;13.88;71.42;98099.38;5025284;28;19931;-61
2022/08/23 05:17:28;;;;;;;;;;;;;;;14.10;70.80;98101.03;5026335;28;19921;-60
2022/08/23 05:20:21;;;;;;;;;;;;;;;13.83;71.43;98102.28;5018323;28;19964;-60
2022/08/23 05:23:15;;;;;;;;;;;;;;;13.80;71.90;98097.50;5036991;28;20354;-60
2022/08/23 05:25:49;;;;;;;;;;;;;;;13.70;71.99;98097.84;5026451;28;19957;-61
2022/08/23 05:28:27;;;;;;;;;;;;;;;13.86;71.75;98113.38;5027405;28;19975;-61
2022/08/23 05:30:59;;;;;;;;;;;;;;;14.08;70.97;98112.28;5041397;28;19928;-63
2022/08/23 05:33:33;;;;;;;;;;;;;;;13.91;71.66;98115.13;5030097;28;19933;-60
2022/08/23 05:36:02;;;;;;;;;;;;;;;14.22;70.84;98109.34;5040563;28;20419;-62
2022/08/23 05:38:32;;;;;;;;;;;;;;;14.33;70.13;98110.56;5028499;28;20370;-61
2022/08/23 05:41:01;;;;;;;;;;;;;;;14.39;70.01;98108.44;5026192;28;19963;-60
2022/08/23 05:43:28;;;;;;;;;;;;;;;14.60;69.29;98119.44;5028502;28;19929;-61
2022/08/23 05:45:59;;;;;;;;;;;;;;;14.38;70.10;98126.78;5043520;28;19921;-60
2022/08/23 05:48:27;;;;;;;;;;;;;;;14.68;68.91;98122.09;5040167;28;19924;-64
2022/08/23 05:51:07;;;;;;;;;;;;;;;14.84;68.42;98114.06;5049153;28;20351;-61
2022/08/23 05:53:37;;;;;;;;;;;;;;;14.99;67.75;98117.34;5043406;28;19925;-61
2022/08/23 05:56:12;;;;;;;;;;;;;;;15.19;67.22;98117.31;5044902;28;19929;-61
2022/08/23 05:58:40;;;;;;;;;;;;;;;15.22;67.36;98115.84;5046187;28;20263;-61
2022/08/23 06:01:08;;;;;;;;;;;;;;;15.28;67.20;98119.16;5029825;28;19925;-61
2022/08/23 06:03:36;;;;;;;;;;;;;;;15.31;67.00;98119.31;5012681;28;19967;-61
2022/08/23 06:06:05;;;;;;;;;;;;;;;15.42;66.94;98114.19;5038727;28;20021;-61
2022/08/23 06:08:34;;;;;;;;;;;;;;;15.43;67.10;98119.34;5036012;28;20354;-60
2022/08/23 06:11:04;;;;;;;;;;;;;;;15.61;66.59;98125.44;5026410;28;19936;-61
2022/08/23 06:13:40;;;;;;;;;;;;;;;15.70;65.98;98126.16;5040873;28;19921;-62
2022/08/23 06:16:34;;;;;;;;;;;;;;;15.85;66.28;98132.91;5028200;28;20434;-60
2022/08/23 06:19:04;;;;;;;7.38;3.60;;;;;;;15.96;66.23;98125.06;5023762;28;20452;-61
2022/08/23 06:21:48;;;;;;;8.93;4.15;;;;;;;15.92;66.42;98129.63;5019646;28;20419;-61
2022/08/23 06:24:23;;;;;;;6.35;4.22;;;;;;;16.09;65.52;98132.16;5040280;28;20418;-61
2022/08/23 06:27:00;;;;;;;6.18;3.80;;;;;;;16.17;65.75;98124.94;5025796;28;20413;-60
2022/08/23 06:29:28;;;;;;;6.68;3.95;;;;;;;16.30;65.64;98133.97;5024204;28;20415;-61
2022/08/23 06:32:22;;;;;;;7.15;3.92;;;;;;;16.28;65.58;98136.25;4994937;28;20458;-61
2022/08/23 06:35:09;;;;;;;;;;;;;;;16.25;65.54;98137.75;5029168;28;20445;-61
2022/08/23 06:38:02;;;;;;;;;;;;;;;16.30;65.97;98133.97;5062391;28;19927;-60
2022/08/23 06:40:48;;;;;;;;;;;;;;;16.42;65.47;98140.25;5059631;28;20439;-61
2022/08/23 06:43:41;;;;;;;5.93;4.05;;;;;;;16.60;64.96;98127.09;5052879;28;20469;-61
2022/08/23 06:46:29;;;;;;;8.25;4.00;;;;;;;16.82;63.70;98139.53;5064974;28;20417;-61
2022/08/23 06:49:04;;;;;;;8.03;4.10;;;;;;;16.86;63.40;98131.41;5067085;28;20465;-61
2022/08/23 06:51:38;;;;;;;7.28;4.10;;;;;;;16.55;64.77;98129.28;5051687;28;20424;-61
2022/08/23 06:54:29;;;;;;;9.85;4.10;;;;;;;16.69;64.05;98132.47;5068383;28;20434;-61
2022/08/23 06:56:57;;;;;;;;;;;;;;;16.96;64.00;98131.72;5064584;28;20418;-61
2022/08/23 06:59:30;;;;;;;;;;;;;;;17.22;63.02;98142.28;5052530;28;19920;-62
2022/08/23 07:02:25;;;;;;;;;;;;;;;17.42;62.37;98139.69;5063676;28;19920;-61
2022/08/23 07:04:55;;;;;;;;;;;;;;;17.62;62.24;98144.13;5066751;28;19928;-61
2022/08/23 07:07:30;;;;;;;;;;;;;;;17.85;62.05;98141.66;5065013;28;19927;-61
2022/08/23 07:10:09;;;;;;;;;;;;;;;17.76;61.53;98143.75;5064362;28;19921;-61
2022/08/23 07:12:40;;;;;;;;;;;;;;;17.80;60.70;98139.97;5065211;28;19921;-61
2022/08/23 07:15:11;;;;;;;;;;;;;;;18.08;59.45;98144.56;5066671;28;19927;-61
2022/08/23 07:17:43;;;;;;;;;;;;;;;18.25;58.85;98138.72;5048261;28;19920;-62
2022/08/23 07:20:10;;;;;;;;;;;;;;;18.31;58.38;98141.97;5050655;28;20452;-61
2022/08/23 07:22:43;;;;;;;;;;;;;;;18.41;58.47;98146.16;5051827;28;20272;-61
2022/08/23 07:25:14;;;;;;;;;;;;;;;18.49;58.31;98142.41;5070220;28;19928;-61
2022/08/23 07:27:47;;;;;;;;;;;;;;;18.45;57.48;98152.53;5043350;28;19931;-61
2022/08/23 07:33:13;;;;;;;;;;;;;;;18.72;56.52;98154.38;5047996;28;19921;-61
2022/08/23 07:36:05;;;;;;;5.45;3.30;;;;;;;18.61;56.54;98147.81;5064819;28;20983;-61
2022/08/23 07:38:34;;;;;;;6.75;3.20;;;;;;;18.74;56.79;98148.50;5051297;28;20788;-61
2022/08/23 07:41:03;;;;;;;6.03;2.95;;;;;;;18.99;55.98;98155.34;5067057;28;20836;-61
2022/08/23 07:43:33;;;;;;;7.87;3.37;;;;;;;18.89;56.38;98163.38;5048057;28;20395;-61
2022/08/23 07:46:03;;;;;;;7.28;3.17;;;;;;;19.13;55.99;98154.09;5050837;28;20975;-61
2022/08/23 07:48:32;;;;;;;5.50;2.72;;;;;;;19.29;56.08;98158.34;5050504;28;20411;-62
2022/08/23 07:51:24;;;;;;;6.15;3.15;;;;;;;19.23;57.39;98158.97;5061278;28;20408;-61
2022/08/23 07:53:53;;;;;;;6.45;3.10;;;;;;;19.34;57.50;98155.31;5062415;28;20442;-61
2022/08/23 07:56:22;;;;;;;5.70;3.33;;;;;;;19.34;57.18;98163.56;5053642;28;20524;-60
2022/08/23 07:59:10;;;;;;;6.45;3.20;;;;;;;19.65;56.97;98174.81;5068336;28;20502;-61
2022/08/23 08:01:45;;;;;;;5.25;3.05;;;;;;;19.79;56.22;98170.38;5058866;28;20437;-61
2022/08/23 08:04:16;;;;;;;5.10;2.97;;;;;;;19.76;56.06;98171.13;5047264;28;20404;-62
2022/08/23 08:09:56;;;;;;;4.28;2.50;;;;;;;19.95;55.41;98167.50;5063828;28;20459;-61
2022/08/23 08:12:25;;;;;;;;;;;;;;;19.91;55.95;98172.16;5031911;28;20041;-61
2022/08/23 08:14:58;;;;;;;;;;;;;;;19.85;55.88;98171.66;5063844;28;19924;-61
2022/08/23 08:17:35;;;;;;;;;;;;;;;19.84;55.69;98170.06;5034618;28;19928;-61
2022/08/23 08:20:10;;;;;;;;;;;;;;;20.10;54.78;98168.56;5068108;28;19920;-61
2022/08/23 08:22:50;;;;;;;;;;;;;;;20.27;54.12;98170.00;5063024;28;19921;-61
2022/08/23 08:25:33;;;;;;;;;;;;;;;20.34;54.44;98178.41;5046336;28;20282;-61
2022/08/23 08:28:05;;;;;;;;;;;;;;;20.43;53.54;98176.19;5067716;28;19924;-61
2022/08/23 08:30:36;;;;;;;;;;;;;;;20.38;53.14;98174.53;5066772;28;19924;-60
2022/08/23 08:33:06;;;;;;;;;;;;;;;20.29;54.48;98175.94;5051026;28;20296;-61
2022/08/23 08:35:35;;;;;;;;;;;;;;;20.47;53.47;98182.59;5052032;28;20442;-61
2022/08/23 08:38:03;;;;;;;;;;;;;;;20.23;52.40;98177.44;5064288;28;19928;-61
2022/08/23 08:40:33;;;;;;;;;;;;;;;20.27;52.51;98179.09;5047022;28;19920;-61
2022/08/23 08:43:07;;;;;;;;;;;;;;;20.31;51.62;98181.91;5051002;28;19924;-61
2022/08/23 08:45:38;;;;;;;;;;;;;;;20.40;51.25;98182.47;5065932;28;19956;-61
2022/08/23 08:48:11;;;;;;;;;;;;;;;20.66;51.74;98184.44;5034290;28;20399;-61
2022/08/23 08:50:54;;;;;;;;;;;;;;;20.84;50.14;98180.00;5063090;28;20403;-61
2022/08/23 08:53:24;;;;;;;;;;;;;;;20.84;50.22;98174.50;5037846;28;19924;-61
2022/08/23 08:56:08;;;;;;;;;;;;;;;20.84;48.39;98174.50;5067087;28;19921;-61
2022/08/23 08:58:41;;;;;;;;;;;;;;;20.93;47.91;98177.78;5049920;28;20408;-61
2022/08/23 09:01:10;;;;;;;;;;;;;;;21.16;46.79;98176.91;5049712;28;19920;-61
2022/08/23 09:03:41;;;;;;;;;;;;;;;20.81;45.73;98177.97;5059880;28;19924;-62
2022/08/23 09:06:13;;;;;;;;;;;;;;;21.13;44.92;98178.41;5063420;28;19920;-61
2022/08/23 09:08:48;;;;;;;;;;;;;;;21.16;42.84;98176.91;5048760;28;19968;-61
2022/08/23 09:11:21;;;;;;;;;;;;;;;21.30;42.82;98160.50;5049980;28;19925;-61
2022/08/23 09:13:58;;;;;;;;;;;;;;;21.50;43.88;98171.41;5046678;28;19920;-61
2022/08/23 09:16:37;;;;;;;;;;;;;;;21.50;42.83;98169.44;5065357;28;19973;-61
2022/08/23 09:19:08;;;;;;;;;;;;;;;21.62;42.01;98168.38;5061953;28;20032;-60
2022/08/23 09:21:39;;;;;;;;;;;;;;;21.64;41.86;98164.06;5065264;28;19927;-60
2022/08/23 09:24:08;;;;;;;;;;;;;;;21.62;41.50;98165.63;5050107;28;19925;-61
2022/08/23 09:26:50;;;;;;;;;;;;;;;21.57;40.76;98166.78;5046868;28;19924;-60
2022/08/23 09:29:20;;;;;;;;;;;;;;;21.66;40.12;98170.00;5058417;28;19974;-61
2022/08/23 09:31:51;;;;;;;;;;;;;;;21.59;40.46;98164.41;5049592;28;19927;-60
2022/08/23 09:34:22;;;;;;;;;;;;;;;21.47;39.94;98167.44;5050641;28;19920;-61
2022/08/23 09:37:06;;;;;;;;;;;;;;;21.78;40.41;98166.19;5050220;28;19924;-60
2022/08/23 09:39:36;;;;;;;;;;;;;;;21.80;40.21;98161.09;5067722;28;20317;-61
2022/08/23 09:42:09;;;;;;;;;;;;;;;21.66;39.96;98156.19;5045669;28;20456;-61
2022/08/23 09:44:38;;;;;;;;;;;;;;;21.93;40.91;98156.06;5051087;28;19962;-61
2022/08/23 09:47:10;;;;;;;;;;;;;;;22.01;40.93;98159.72;5065972;28;19924;-61
2022/08/23 09:49:46;;;;;;;;;;;;;;;22.05;40.78;98150.28;5067371;28;19960;-61
2022/08/23 09:52:19;;;;;;;;;;;;;;;22.02;40.13;98153.00;5064966;28;19929;-61
2022/08/23 09:54:57;;;;;;;;;;;;;;;22.05;40.39;98149.44;5066064;28;19924;-60
2022/08/23 09:57:27;;;;;;;;;;;;;;;22.14;40.68;98149.97;5066498;28;19920;-61
2022/08/23 09:59:56;;;;;;;;;;;;;;;21.80;40.26;98152.00;5048212;28;20002;-60
2022/08/23 10:02:32;;;;;;;;;;;;;;;21.89;40.06;98150.53;5063148;28;20028;-61
2022/08/23 10:05:19;;;;;;;;;;;;;;;22.12;40.17;98152.34;5048928;28;19921;-61
2022/08/23 10:07:54;;;;;;;;;;;;;;;22.13;40.25;98149.16;5063825;28;19926;-60
2022/08/23 10:10:25;;;;;;;;;;;;;;;22.09;39.79;98151.06;5045197;28;19984;-61
2022/08/23 10:12:57;;;;;;;;;;;;;;;22.23;40.72;98147.69;5048221;28;19920;-61
2022/08/23 10:15:28;;;;;;;;;;;;;;;22.19;40.22;98142.09;5048065;28;20434;-61
2022/08/23 10:18:02;;;;;;;;;;;;;;;22.38;40.75;98137.53;5067356;28;19959;-61
2022/08/23 10:20:34;;;;;;;;;;;;;;;22.48;40.47;98148.69;5051719;28;19921;-61
2022/08/23 10:23:06;;;;;;;;;;;;;;;22.45;39.63;98137.56;5066443;28;20484;-61
2022/08/23 10:25:55;;;;;;;;;;;;;;;22.57;39.45;98137.25;5070373;28;19921;-61
2022/08/23 10:31:21;;;;;;;;;;;;;;;22.77;37.09;98135.00;5055368;28;19920;-60
2022/08/23 10:33:53;;;;;;;;;;;;;;;22.84;38.19;98134.25;5066879;28;19977;-61
2022/08/23 10:36:25;;;;;;;;;;;;;;;22.83;36.89;98125.16;5067827;28;19978;-62
2022/08/23 10:38:55;;;;;;;;;;;;;;;22.88;37.28;98124.03;5067055;28;19943;-60
2022/08/23 10:41:31;;;;;;;;;;;;;;;22.97;36.61;98122.50;5066417;28;20369;-60
2022/08/23 10:44:01;;;;;;;;;;;;;;;23.05;38.40;98122.50;5045901;28;20227;-61
2022/08/23 10:46:31;;;;;;;;;;;;;;;23.07;37.50;98122.94;5066939;28;20262;-61
2022/08/23 10:48:59;;;;;;;;;;;;;;;23.00;37.58;98118.94;5051930;28;19924;-61
2022/08/23 10:51:31;;;;;;;;;;;;;;;22.95;37.88;98115.72;5049526;28;19924;-61
2022/08/23 10:54:03;;;;;;;;;;;;;;;22.95;37.80;98110.19;5048913;28;19920;-61
2022/08/23 10:56:30;;;;;;;;;;;;;;;23.00;38.70;98107.84;5054218;28;19921;-61
2022/08/23 10:58:59;;;;;;;;;;;;;;;23.08;38.13;98111.47;5052992;28;20555;-61
2022/08/23 11:01:29;;;;;;;;;;;;;;;23.13;37.23;98107.53;5068342;28;20293;-60
2022/08/23 11:04:00;;;;;;;;;;;;;;;22.96;36.27;98107.06;5042103;28;20007;-60
2022/08/23 11:06:44;;;;;;;;;;;;;;;23.07;36.47;98114.63;5045425;28;19924;-61
2022/08/23 11:09:31;;;;;;;;;;;;;;;23.19;35.68;98108.72;5065406;28;19928;-60
2022/08/23 11:12:34;;;;;;;;;;;;;;;23.03;35.13;98105.50;5066587;28;20316;-61
2022/08/23 11:15:12;;;;;;;2.40;1.00;;;;;;;23.03;35.05;98105.50;5065996;28;20018;-61
2022/08/23 11:17:56;;;;;;;1.70;0.60;;;;;;;23.16;33.93;98099.19;5047232;28;19920;-61
2022/08/23 11:20:50;;;;;;;;;;;;;;;23.28;35.35;98100.84;5061059;28;20402;-61
2022/08/23 11:23:50;;;;;;;;;;;;;;;23.29;35.51;98098.88;5065193;28;19920;-60
2022/08/23 11:26:40;;;;;;;;;;;;;;;23.22;35.86;98097.66;5051399;28;19956;-61
2022/08/23 11:29:24;;;;;;;;;;;;;;;23.33;36.41;98099.66;5065393;28;19942;-60
2022/08/23 11:32:19;;;;;;;;;;;;;;;23.44;36.15;98095.75;5066956;28;20436;-60
2022/08/23 11:37:54;;;;;;;;;;;;;;;23.53;34.61;98090.59;5025993;28;19928;-65
2022/08/23 11:40:40;;;;;;;;;;;;;;;23.49;34.29;98098.13;5033949;28;19921;-60
2022/08/23 11:43:11;;;;;;;;;;;;;;;23.62;35.04;98086.66;5032040;28;20007;-63
2022/08/23 11:45:42;;;;;;;;;;;;;;;23.65;34.24;98086.72;5027520;28;19928;-61
2022/08/23 11:48:13;;;;;;;;;;;;;;;23.68;34.01;98079.56;5027529;28;20351;-60
2022/08/23 11:50:57;;;;;;;;;;;;;;;23.72;32.95;98080.38;5026572;28;19928;-61
2022/08/23 11:53:35;;;;;;;;;;;;;;;23.80;32.74;98079.19;5027494;28;20367;-60
2022/08/23 11:56:16;;;;;;;;;;;;;;;24.02;31.65;98089.13;5043558;28;19952;-60
2022/08/23 11:58:52;;;;;;;;;;;;;;;24.24;31.21;98097.44;5043214;28;19929;-60
2022/08/23 12:01:27;;;;;;;;;;;;;;;24.16;30.39;98093.06;5012889;28;19928;-60
2022/08/23 12:03:55;;;;;;;;;;;;;;;24.22;31.52;98085.94;5023637;28;19921;-61
2022/08/23 12:06:37;;;;;;;;;;;;;;;24.28;32.00;98092.66;5028334;28;19921;-60
2022/08/23 12:09:11;;;;;;;;;;;;;;;24.38;31.71;98093.88;5023111;28;20493;-60
2022/08/23 12:11:58;;;;;;;;;;;;;;;24.44;31.70;98093.06;5013941;28;19925;-60
2022/08/23 12:14:53;;;;;;;;;;;;;;;24.29;32.01;98097.84;5023676;28;19928;-61
2022/08/23 12:17:40;;;;;;;;;;;;;;;24.27;31.55;98099.41;5026010;28;19925;-60
2022/08/23 12:20:10;;;;;;;;;;;;;;;24.21;32.62;98096.25;5022420;28;20285;-61
2022/08/23 12:22:55;;;;;;;;;;;;;;;24.30;32.42;98095.84;5011331;28;19971;-61
2022/08/23 12:25:23;;;;;;;;;;;;;;;24.38;32.62;98105.78;5026051;28;19920;-61
2022/08/23 12:30:50;;;;;;;;;;;;;;;24.48;31.66;98099.41;5039470;28;19932;-60
2022/08/23 12:33:20;;;;;;;;;;;;;;;24.53;32.09;98090.69;5024450;28;20285;-60
2022/08/23 12:35:50;;;;;;;;;;;;;;;24.45;32.60;98086.34;5012257;28;19928;-60
2022/08/23 12:38:19;;;;;;;;;;;;;;;24.49;32.04;98084.34;5046240;28;19958;-61
2022/08/23 12:40:50;;;;;;;;;;;;;;;24.46;31.51;98089.91;5046153;28;19928;-61
2022/08/23 12:43:21;;;;;;;;;;;;;;;24.52;31.02;98085.53;5050142;28;19936;-60
2022/08/23 12:45:52;;;;;;;;;;;;;;;24.65;30.99;98078.34;5044053;28;19929;-60
2022/08/23 12:48:21;;;;;;;;;;;;;;;24.69;31.43;98075.56;5060069;28;20381;-61
2022/08/23 12:50:53;;;;;;;;;;;;;;;24.65;31.66;98083.13;5042052;28;20432;-60
2022/08/23 12:53:26;;;;;;;;;;;;;;;24.68;31.81;98079.56;5047001;28;19924;-60
2022/08/23 12:55:58;;;;;;;;;;;;;;;24.72;30.55;98077.56;5046122;28;19921;-61
2022/08/23 12:58:27;;;;;;;;;;;;;;;24.76;31.44;98070.78;5046930;28;20019;-60
2022/08/23 13:01:01;;;;;;;;;;;;;;;24.79;31.61;98074.75;5040066;28;19922;-60
2022/08/23 13:03:29;;;;;;;;;;;;;;;24.69;30.12;98072.78;5047002;28;19927;-60
2022/08/23 13:05:59;;;;;;;;;;;;;;;24.78;30.84;98076.75;5065309;28;19924;-60
2022/08/23 13:08:29;;;;;;;;;;;;;;;24.84;31.66;98066.00;5049822;28;19966;-60
2022/08/23 13:11:01;;;;;;;;;;;;;;;24.81;31.05;98058.47;5039724;28;20432;-60
2022/08/23 13:13:34;;;;;;;;;;;;;;;25.03;31.52;98067.50;5046829;28;20388;-60
2022/08/23 13:16:22;;;;;;;;;;;;;;;25.01;31.09;98064.34;5041748;28;19921;-60
2022/08/23 13:18:54;;;;;;;;;;;;;;;25.03;31.07;98073.06;5044169;28;19932;-60
2022/08/23 13:21:27;;;;;;;;;;;;;;;25.08;31.24;98067.13;5046522;28;20276;-60
2022/08/23 13:23:56;;;;;;;;;;;;;;;25.03;31.78;98067.50;5040406;28;19920;-61
2022/08/23 13:26:27;;;;;;;;;;;;;;;24.95;31.33;98063.19;5045946;28;19925;-61
2022/08/23 13:29:03;;;;;;;;;;;;;;;24.89;30.94;98062.03;5056531;28;19921;-61
2022/08/23 13:37:37;;;;;;;;;;;;;;;25.15;31.93;98044.06;5047701;28;19960;-60
2022/08/23 13:40:08;;;;;;;;;;;;;;;25.16;30.86;98045.66;5040618;28;19965;-60
2022/08/23 13:42:47;;;;;;;;;;;;;;;25.25;29.93;98046.00;5050672;28;20303;-60
2022/08/23 13:45:15;;;;;;;;;;;;;;;25.21;30.26;98057.13;5045228;28;19921;-60
2022/08/23 13:47:46;;;;;;;;;;;;;;;25.27;30.51;98043.59;5040779;28;19925;-60
2022/08/23 13:50:21;;;;;;;;;;;;;;;25.26;30.66;98037.25;5043486;28;19936;-60
2022/08/23 13:52:49;;;;;;;;;;;;;;;25.35;30.91;98042.34;5042520;28;20019;-60